Weather at Seve Ballesteros-Santander Airport

Public forecast

Using degrees Celsius for public forecast. Weather courtesy of forecast.io.

Current aviation weather report (METAR) for Seve Ballesteros-Santander Airport

Retrieved 2022/06/30 12:30 UTC (4 minutes ago):

LEXJ 301230Z 33010KT 270V020 9999 SCT030 19/11 Q1019

Aviation forecast (TAF) for Seve Ballesteros-Santander Airport

Retrieved 2022/06/30 09:27 UTC (3 hours ago):

TAF TAF LEXJ 300800Z 3009/0109 29008KT 9999 SCT020 BKN040 TX19/3016Z TN11/0105Z PROB30 TEMPO 3009/3013 3000 RA BKN010 PROB40 TEMPO 3010/3012 29015G25KT BECMG 0107/0109 06010KT